sensor_id;sensor_type;location;lat;lon;timestamp;P1;durP1;ratioP1;P2;durP2;ratioP2
13061;SDS011;6597;52.218;9.882;2023-04-24T00:01:19;0.60;;;0.60;;
13061;SDS011;6597;52.218;9.882;2023-04-24T00:03:46;1.80;;;0.80;;
13061;SDS011;6597;52.218;9.882;2023-04-24T00:06:12;0.80;;;0.80;;
13061;SDS011;6597;52.218;9.882;2023-04-24T00:08:41;0.80;;;0.80;;
13061;SDS011;6597;52.218;9.882;2023-04-24T00:11:08;0.57;;;0.57;;
13061;SDS011;6597;52.218;9.882;2023-04-24T00:13:36;0.77;;;0.77;;
13061;SDS011;6597;52.218;9.882;2023-04-24T00:16:03;0.60;;;0.60;;
13061;SDS011;6597;52.218;9.882;2023-04-24T00:18:30;0.83;;;0.80;;
13061;SDS011;6597;52.218;9.882;2023-04-24T00:20:57;1.13;;;0.90;;
13061;SDS011;6597;52.218;9.882;2023-04-24T00:23:23;1.73;;;0.83;;
13061;SDS011;6597;52.218;9.882;2023-04-24T00:25:50;1.53;;;0.93;;
13061;SDS011;6597;52.218;9.882;2023-04-24T00:28:16;1.17;;;1.00;;
13061;SDS011;6597;52.218;9.882;2023-04-24T00:30:44;1.90;;;0.90;;
13061;SDS011;6597;52.218;9.882;2023-04-24T00:33:11;1.50;;;1.00;;
13061;SDS011;6597;52.218;9.882;2023-04-24T00:35:38;1.57;;;0.80;;
13061;SDS011;6597;52.218;9.882;2023-04-24T00:38:05;1.80;;;0.90;;
13061;SDS011;6597;52.218;9.882;2023-04-24T00:40:31;1.40;;;0.90;;
13061;SDS011;6597;52.218;9.882;2023-04-24T00:42:58;2.40;;;1.00;;
13061;SDS011;6597;52.218;9.882;2023-04-24T00:45:24;1.37;;;1.00;;
13061;SDS011;6597;52.218;9.882;2023-04-24T00:47:53;2.60;;;0.90;;
13061;SDS011;6597;52.218;9.882;2023-04-24T00:50:20;1.77;;;0.97;;
13061;SDS011;6597;52.218;9.882;2023-04-24T00:52:47;1.20;;;0.90;;
13061;SDS011;6597;52.218;9.882;2023-04-24T00:55:13;0.97;;;0.93;;
13061;SDS011;6597;52.218;9.882;2023-04-24T00:57:40;1.20;;;1.00;;
13061;SDS011;6597;52.218;9.882;2023-04-24T01:00:08;1.57;;;1.10;;
13061;SDS011;6597;52.218;9.882;2023-04-24T01:02:37;0.80;;;0.80;;
13061;SDS011;6597;52.218;9.882;2023-04-24T01:05:10;1.20;;;1.10;;
13061;SDS011;6597;52.218;9.882;2023-04-24T01:07:37;1.77;;;0.87;;
13061;SDS011;6597;52.218;9.882;2023-04-24T01:10:05;1.00;;;0.80;;
13061;SDS011;6597;52.218;9.882;2023-04-24T01:12:33;0.77;;;0.77;;
13061;SDS011;6597;52.218;9.882;2023-04-24T01:14:59;2.97;;;1.03;;
13061;SDS011;6597;52.218;9.882;2023-04-24T01:17:26;1.47;;;1.00;;
13061;SDS011;6597;52.218;9.882;2023-04-24T01:19:53;3.87;;;1.10;;
13061;SDS011;6597;52.218;9.882;2023-04-24T01:22:24;1.60;;;1.03;;
13061;SDS011;6597;52.218;9.882;2023-04-24T01:24:50;2.77;;;0.90;;
13061;SDS011;6597;52.218;9.882;2023-04-24T01:27:17;1.27;;;1.17;;
13061;SDS011;6597;52.218;9.882;2023-04-24T01:29:44;3.80;;;1.10;;
13061;SDS011;6597;52.218;9.882;2023-04-24T01:32:11;1.53;;;1.20;;
13061;SDS011;6597;52.218;9.882;2023-04-24T01:34:39;1.20;;;1.03;;
13061;SDS011;6597;52.218;9.882;2023-04-24T01:37:06;3.93;;;0.90;;
13061;SDS011;6597;52.218;9.882;2023-04-24T01:39:34;0.90;;;0.90;;
13061;SDS011;6597;52.218;9.882;2023-04-24T01:42:01;3.00;;;1.10;;
13061;SDS011;6597;52.218;9.882;2023-04-24T01:44:28;1.03;;;0.80;;
13061;SDS011;6597;52.218;9.882;2023-04-24T01:46:55;0.87;;;0.80;;
13061;SDS011;6597;52.218;9.882;2023-04-24T01:49:22;1.07;;;1.00;;
13061;SDS011;6597;52.218;9.882;2023-04-24T01:51:49;1.10;;;1.00;;
13061;SDS011;6597;52.218;9.882;2023-04-24T01:54:16;7.97;;;1.30;;
13061;SDS011;6597;52.218;9.882;2023-04-24T01:56:43;1.97;;;1.23;;
13061;SDS011;6597;52.218;9.882;2023-04-24T01:59:11;1.07;;;0.97;;
13061;SDS011;6597;52.218;9.882;2023-04-24T02:01:38;1.20;;;1.10;;
13061;SDS011;6597;52.218;9.882;2023-04-24T02:04:05;1.57;;;1.10;;
13061;SDS011;6597;52.218;9.882;2023-04-24T02:06:34;1.80;;;1.13;;
13061;SDS011;6597;52.218;9.882;2023-04-24T02:09:01;1.33;;;1.23;;
13061;SDS011;6597;52.218;9.882;2023-04-24T02:11:29;0.87;;;0.83;;
13061;SDS011;6597;52.218;9.882;2023-04-24T02:13:57;1.00;;;0.90;;
13061;SDS011;6597;52.218;9.882;2023-04-24T02:16:25;1.80;;;1.10;;
13061;SDS011;6597;52.218;9.882;2023-04-24T02:18:51;1.60;;;1.07;;
13061;SDS011;6597;52.218;9.882;2023-04-24T02:21:18;3.13;;;1.10;;
13061;SDS011;6597;52.218;9.882;2023-04-24T02:23:44;1.03;;;0.80;;
13061;SDS011;6597;52.218;9.882;2023-04-24T02:26:11;0.93;;;0.90;;
13061;SDS011;6597;52.218;9.882;2023-04-24T02:28:38;1.17;;;0.90;;
13061;SDS011;6597;52.218;9.882;2023-04-24T02:31:06;1.10;;;0.80;;
13061;SDS011;6597;52.218;9.882;2023-04-24T02:33:32;1.17;;;0.97;;
13061;SDS011;6597;52.218;9.882;2023-04-24T02:36:00;0.67;;;0.67;;
13061;SDS011;6597;52.218;9.882;2023-04-24T02:38:27;2.97;;;1.03;;
13061;SDS011;6597;52.218;9.882;2023-04-24T02:40:54;0.90;;;0.90;;
13061;SDS011;6597;52.218;9.882;2023-04-24T02:43:21;0.93;;;0.73;;
13061;SDS011;6597;52.218;9.882;2023-04-24T02:45:47;0.83;;;0.77;;
13061;SDS011;6597;52.218;9.882;2023-04-24T02:48:15;1.10;;;0.97;;
13061;SDS011;6597;52.218;9.882;2023-04-24T02:50:43;1.07;;;1.00;;
13061;SDS011;6597;52.218;9.882;2023-04-24T02:53:10;0.70;;;0.70;;
13061;SDS011;6597;52.218;9.882;2023-04-24T02:55:36;0.80;;;0.77;;
13061;SDS011;6597;52.218;9.882;2023-04-24T02:58:03;0.93;;;0.70;;
13061;SDS011;6597;52.218;9.882;2023-04-24T03:00:30;1.30;;;0.90;;
13061;SDS011;6597;52.218;9.882;2023-04-24T03:02:57;0.97;;;0.97;;
13061;SDS011;6597;52.218;9.882;2023-04-24T03:05:25;1.03;;;0.97;;
13061;SDS011;6597;52.218;9.882;2023-04-24T03:07:52;1.00;;;0.90;;
13061;SDS011;6597;52.218;9.882;2023-04-24T03:10:20;1.10;;;1.00;;
13061;SDS011;6597;52.218;9.882;2023-04-24T03:12:47;0.97;;;0.90;;
13061;SDS011;6597;52.218;9.882;2023-04-24T03:15:14;1.20;;;0.87;;
13061;SDS011;6597;52.218;9.882;2023-04-24T03:17:40;1.53;;;1.10;;
13061;SDS011;6597;52.218;9.882;2023-04-24T03:20:07;1.00;;;0.90;;
13061;SDS011;6597;52.218;9.882;2023-04-24T03:22:36;0.80;;;0.80;;
13061;SDS011;6597;52.218;9.882;2023-04-24T03:25:06;0.90;;;0.90;;
13061;SDS011;6597;52.218;9.882;2023-04-24T03:27:34;1.10;;;1.00;;
13061;SDS011;6597;52.218;9.882;2023-04-24T03:30:05;1.00;;;0.90;;
13061;SDS011;6597;52.218;9.882;2023-04-24T03:32:44;1.37;;;1.17;;
13061;SDS011;6597;52.218;9.882;2023-04-24T03:35:14;0.63;;;0.60;;
13061;SDS011;6597;52.218;9.882;2023-04-24T03:37:42;0.60;;;0.60;;
13061;SDS011;6597;52.218;9.882;2023-04-24T03:40:44;0.67;;;0.67;;
13061;SDS011;6597;52.218;9.882;2023-04-24T03:43:27;6.20;;;0.80;;
13061;SDS011;6597;52.218;9.882;2023-04-24T03:45:56;1.20;;;0.63;;
13061;SDS011;6597;52.218;9.882;2023-04-24T03:48:23;2.47;;;0.90;;
13061;SDS011;6597;52.218;9.882;2023-04-24T03:50:50;0.60;;;0.50;;
13061;SDS011;6597;52.218;9.882;2023-04-24T03:53:18;0.70;;;0.70;;
13061;SDS011;6597;52.218;9.882;2023-04-24T03:55:45;0.70;;;0.70;;
13061;SDS011;6597;52.218;9.882;2023-04-24T03:58:13;1.23;;;0.70;;
13061;SDS011;6597;52.218;9.882;2023-04-24T04:00:39;0.97;;;0.60;;
13061;SDS011;6597;52.218;9.882;2023-04-24T04:03:41;0.43;;;0.43;;
13061;SDS011;6597;52.218;9.882;2023-04-24T04:06:08;0.70;;;0.70;;
13061;SDS011;6597;52.218;9.882;2023-04-24T04:08:38;0.50;;;0.50;;
13061;SDS011;6597;52.218;9.882;2023-04-24T04:11:04;0.40;;;0.40;;
13061;SDS011;6597;52.218;9.882;2023-04-24T04:13:31;0.60;;;0.50;;
13061;SDS011;6597;52.218;9.882;2023-04-24T04:15:58;4.00;;;0.80;;
13061;SDS011;6597;52.218;9.882;2023-04-24T04:18:24;1.33;;;0.60;;
13061;SDS011;6597;52.218;9.882;2023-04-24T04:20:51;0.83;;;0.67;;
13061;SDS011;6597;52.218;9.882;2023-04-24T04:23:17;0.70;;;0.70;;
13061;SDS011;6597;52.218;9.882;2023-04-24T04:26:07;0.60;;;0.60;;
13061;SDS011;6597;52.218;9.882;2023-04-24T04:28:49;0.60;;;0.50;;
13061;SDS011;6597;52.218;9.882;2023-04-24T04:31:16;0.80;;;0.57;;
13061;SDS011;6597;52.218;9.882;2023-04-24T04:33:43;1.70;;;0.63;;
13061;SDS011;6597;52.218;9.882;2023-04-24T04:36:09;0.47;;;0.47;;
13061;SDS011;6597;52.218;9.882;2023-04-24T04:38:41;0.57;;;0.57;;
13061;SDS011;6597;52.218;9.882;2023-04-24T04:41:33;0.83;;;0.50;;
13061;SDS011;6597;52.218;9.882;2023-04-24T04:44:01;1.07;;;0.67;;
13061;SDS011;6597;52.218;9.882;2023-04-24T04:46:31;0.40;;;0.40;;
13061;SDS011;6597;52.218;9.882;2023-04-24T04:49:10;0.80;;;0.70;;
13061;SDS011;6597;52.218;9.882;2023-04-24T04:51:37;1.00;;;0.70;;
13061;SDS011;6597;52.218;9.882;2023-04-24T04:54:03;0.53;;;0.53;;
13061;SDS011;6597;52.218;9.882;2023-04-24T04:56:30;0.63;;;0.63;;
13061;SDS011;6597;52.218;9.882;2023-04-24T04:59:00;1.17;;;0.60;;
13061;SDS011;6597;52.218;9.882;2023-04-24T05:01:27;0.47;;;0.47;;
13061;SDS011;6597;52.218;9.882;2023-04-24T05:03:54;0.50;;;0.50;;
13061;SDS011;6597;52.218;9.882;2023-04-24T05:06:21;0.77;;;0.50;;
13061;SDS011;6597;52.218;9.882;2023-04-24T05:08:47;2.10;;;0.60;;
13061;SDS011;6597;52.218;9.882;2023-04-24T05:11:25;1.57;;;0.53;;
13061;SDS011;6597;52.218;9.882;2023-04-24T05:13:54;0.47;;;0.40;;
13061;SDS011;6597;52.218;9.882;2023-04-24T05:16:29;0.67;;;0.50;;
13061;SDS011;6597;52.218;9.882;2023-04-24T05:18:56;1.07;;;0.60;;
13061;SDS011;6597;52.218;9.882;2023-04-24T05:21:28;0.90;;;0.63;;
13061;SDS011;6597;52.218;9.882;2023-04-24T05:23:56;0.60;;;0.53;;
13061;SDS011;6597;52.218;9.882;2023-04-24T05:26:58;0.77;;;0.70;;
13061;SDS011;6597;52.218;9.882;2023-04-24T05:29:31;2.77;;;0.90;;
13061;SDS011;6597;52.218;9.882;2023-04-24T05:31:59;0.80;;;0.70;;
13061;SDS011;6597;52.218;9.882;2023-04-24T05:34:28;0.60;;;0.60;;
13061;SDS011;6597;52.218;9.882;2023-04-24T05:36:56;0.90;;;0.60;;
13061;SDS011;6597;52.218;9.882;2023-04-24T05:39:22;3.93;;;0.73;;
13061;SDS011;6597;52.218;9.882;2023-04-24T05:41:50;2.17;;;0.60;;
13061;SDS011;6597;52.218;9.882;2023-04-24T05:44:16;0.63;;;0.50;;
13061;SDS011;6597;52.218;9.882;2023-04-24T05:46:43;0.93;;;0.70;;
13061;SDS011;6597;52.218;9.882;2023-04-24T05:49:11;0.50;;;0.50;;
13061;SDS011;6597;52.218;9.882;2023-04-24T05:51:39;0.67;;;0.40;;
13061;SDS011;6597;52.218;9.882;2023-04-24T05:54:06;0.63;;;0.63;;
13061;SDS011;6597;52.218;9.882;2023-04-24T05:56:33;1.07;;;0.80;;
13061;SDS011;6597;52.218;9.882;2023-04-24T05:59:02;0.83;;;0.57;;
13061;SDS011;6597;52.218;9.882;2023-04-24T06:01:28;0.50;;;0.50;;
13061;SDS011;6597;52.218;9.882;2023-04-24T06:04:05;1.40;;;0.83;;
13061;SDS011;6597;52.218;9.882;2023-04-24T06:06:33;0.60;;;0.57;;
13061;SDS011;6597;52.218;9.882;2023-04-24T06:09:01;0.40;;;0.40;;
13061;SDS011;6597;52.218;9.882;2023-04-24T06:11:28;0.50;;;0.50;;
13061;SDS011;6597;52.218;9.882;2023-04-24T06:13:55;0.67;;;0.67;;
13061;SDS011;6597;52.218;9.882;2023-04-24T06:16:37;0.60;;;0.47;;
13061;SDS011;6597;52.218;9.882;2023-04-24T06:19:13;0.83;;;0.60;;
13061;SDS011;6597;52.218;9.882;2023-04-24T06:21:41;0.50;;;0.50;;
13061;SDS011;6597;52.218;9.882;2023-04-24T06:24:08;2.17;;;0.50;;
13061;SDS011;6597;52.218;9.882;2023-04-24T06:26:35;0.77;;;0.53;;
13061;SDS011;6597;52.218;9.882;2023-04-24T06:29:02;1.27;;;0.77;;
13061;SDS011;6597;52.218;9.882;2023-04-24T06:31:28;4.93;;;0.80;;
13061;SDS011;6597;52.218;9.882;2023-04-24T06:33:55;1.50;;;0.70;;
13061;SDS011;6597;52.218;9.882;2023-04-24T06:36:23;2.53;;;0.80;;
13061;SDS011;6597;52.218;9.882;2023-04-24T06:38:50;0.80;;;0.80;;
13061;SDS011;6597;52.218;9.882;2023-04-24T06:41:17;0.80;;;0.80;;
13061;SDS011;6597;52.218;9.882;2023-04-24T06:43:44;0.80;;;0.70;;
13061;SDS011;6597;52.218;9.882;2023-04-24T06:46:10;0.70;;;0.70;;
13061;SDS011;6597;52.218;9.882;2023-04-24T06:48:37;1.13;;;1.03;;
13061;SDS011;6597;52.218;9.882;2023-04-24T06:51:04;1.10;;;1.00;;
13061;SDS011;6597;52.218;9.882;2023-04-24T06:53:31;1.00;;;0.93;;
13061;SDS011;6597;52.218;9.882;2023-04-24T06:55:59;1.07;;;1.00;;
13061;SDS011;6597;52.218;9.882;2023-04-24T06:58:26;1.53;;;1.10;;
13061;SDS011;6597;52.218;9.882;2023-04-24T07:00:53;1.40;;;1.00;;
13061;SDS011;6597;52.218;9.882;2023-04-24T07:03:19;2.00;;;1.40;;
13061;SDS011;6597;52.218;9.882;2023-04-24T07:05:46;1.63;;;1.30;;
13061;SDS011;6597;52.218;9.882;2023-04-24T07:08:13;1.63;;;1.47;;
13061;SDS011;6597;52.218;9.882;2023-04-24T07:10:42;1.67;;;1.37;;
13061;SDS011;6597;52.218;9.882;2023-04-24T07:13:10;2.30;;;1.40;;
13061;SDS011;6597;52.218;9.882;2023-04-24T07:15:36;2.53;;;1.33;;
13061;SDS011;6597;52.218;9.882;2023-04-24T07:18:03;1.30;;;1.20;;
13061;SDS011;6597;52.218;9.882;2023-04-24T07:20:30;2.23;;;1.50;;
13061;SDS011;6597;52.218;9.882;2023-04-24T07:22:56;2.40;;;2.10;;
13061;SDS011;6597;52.218;9.882;2023-04-24T07:25:23;3.23;;;2.33;;
13061;SDS011;6597;52.218;9.882;2023-04-24T07:27:50;2.87;;;2.27;;
13061;SDS011;6597;52.218;9.882;2023-04-24T07:30:17;7.37;;;2.90;;
13061;SDS011;6597;52.218;9.882;2023-04-24T07:32:44;4.93;;;3.00;;
13061;SDS011;6597;52.218;9.882;2023-04-24T07:35:10;3.77;;;2.63;;
13061;SDS011;6597;52.218;9.882;2023-04-24T07:37:37;4.20;;;3.10;;
13061;SDS011;6597;52.218;9.882;2023-04-24T07:40:04;4.30;;;3.07;;
13061;SDS011;6597;52.218;9.882;2023-04-24T07:42:31;5.37;;;3.23;;
13061;SDS011;6597;52.218;9.882;2023-04-24T07:44:59;3.97;;;2.57;;
13061;SDS011;6597;52.218;9.882;2023-04-24T07:47:27;4.40;;;2.97;;
13061;SDS011;6597;52.218;9.882;2023-04-24T07:49:54;4.87;;;2.63;;
13061;SDS011;6597;52.218;9.882;2023-04-24T07:52:20;3.33;;;2.63;;
13061;SDS011;6597;52.218;9.882;2023-04-24T07:54:47;4.83;;;3.07;;
13061;SDS011;6597;52.218;9.882;2023-04-24T07:57:14;4.33;;;2.47;;
13061;SDS011;6597;52.218;9.882;2023-04-24T07:59:41;6.03;;;2.87;;
13061;SDS011;6597;52.218;9.882;2023-04-24T08:02:07;6.40;;;2.93;;
13061;SDS011;6597;52.218;9.882;2023-04-24T08:04:36;4.60;;;2.40;;
13061;SDS011;6597;52.218;9.882;2023-04-24T08:07:02;3.13;;;2.63;;
13061;SDS011;6597;52.218;9.882;2023-04-24T08:09:29;4.47;;;3.20;;
13061;SDS011;6597;52.218;9.882;2023-04-24T08:11:55;7.13;;;3.47;;
13061;SDS011;6597;52.218;9.882;2023-04-24T08:14:22;6.33;;;3.20;;
13061;SDS011;6597;52.218;9.882;2023-04-24T08:16:49;3.63;;;3.03;;
13061;SDS011;6597;52.218;9.882;2023-04-24T08:19:15;3.70;;;2.67;;
13061;SDS011;6597;52.218;9.882;2023-04-24T08:21:43;6.50;;;3.30;;
13061;SDS011;6597;52.218;9.882;2023-04-24T08:24:10;4.37;;;3.20;;
13061;SDS011;6597;52.218;9.882;2023-04-24T08:26:36;5.03;;;3.50;;
13061;SDS011;6597;52.218;9.882;2023-04-24T08:29:04;3.90;;;3.13;;
13061;SDS011;6597;52.218;9.882;2023-04-24T08:31:31;4.87;;;3.03;;
13061;SDS011;6597;52.218;9.882;2023-04-24T08:33:58;4.33;;;3.07;;
13061;SDS011;6597;52.218;9.882;2023-04-24T08:36:25;5.87;;;3.60;;
13061;SDS011;6597;52.218;9.882;2023-04-24T08:38:54;7.33;;;3.60;;
13061;SDS011;6597;52.218;9.882;2023-04-24T08:41:20;7.10;;;3.33;;
13061;SDS011;6597;52.218;9.882;2023-04-24T08:43:49;4.50;;;3.30;;
13061;SDS011;6597;52.218;9.882;2023-04-24T08:46:17;4.80;;;3.03;;
13061;SDS011;6597;52.218;9.882;2023-04-24T08:48:45;5.07;;;2.80;;
13061;SDS011;6597;52.218;9.882;2023-04-24T08:51:12;5.17;;;2.90;;
13061;SDS011;6597;52.218;9.882;2023-04-24T08:53:40;5.20;;;3.17;;
13061;SDS011;6597;52.218;9.882;2023-04-24T08:56:08;5.03;;;3.27;;
13061;SDS011;6597;52.218;9.882;2023-04-24T08:58:35;6.07;;;3.20;;
13061;SDS011;6597;52.218;9.882;2023-04-24T09:01:02;8.47;;;3.00;;
13061;SDS011;6597;52.218;9.882;2023-04-24T09:03:29;4.10;;;2.93;;
13061;SDS011;6597;52.218;9.882;2023-04-24T09:05:57;3.83;;;2.77;;
13061;SDS011;6597;52.218;9.882;2023-04-24T09:08:25;3.77;;;3.17;;
13061;SDS011;6597;52.218;9.882;2023-04-24T09:10:53;6.00;;;3.00;;
13061;SDS011;6597;52.218;9.882;2023-04-24T09:13:21;4.47;;;3.17;;
13061;SDS011;6597;52.218;9.882;2023-04-24T09:15:48;5.63;;;3.17;;
13061;SDS011;6597;52.218;9.882;2023-04-24T09:18:15;3.50;;;2.47;;
13061;SDS011;6597;52.218;9.882;2023-04-24T09:20:58;2.57;;;1.70;;
13061;SDS011;6597;52.218;9.882;2023-04-24T09:23:27;2.90;;;1.80;;
13061;SDS011;6597;52.218;9.882;2023-04-24T09:25:54;2.80;;;2.10;;
13061;SDS011;6597;52.218;9.882;2023-04-24T09:28:26;3.00;;;1.87;;
13061;SDS011;6597;52.218;9.882;2023-04-24T09:31:05;4.03;;;1.93;;
13061;SDS011;6597;52.218;9.882;2023-04-24T09:33:33;5.77;;;2.27;;
13061;SDS011;6597;52.218;9.882;2023-04-24T09:36:00;2.70;;;2.23;;
13061;SDS011;6597;52.218;9.882;2023-04-24T09:38:30;3.90;;;2.47;;
13061;SDS011;6597;52.218;9.882;2023-04-24T09:40:59;2.23;;;1.87;;
13061;SDS011;6597;52.218;9.882;2023-04-24T09:43:27;3.10;;;2.30;;
13061;SDS011;6597;52.218;9.882;2023-04-24T09:45:55;2.90;;;1.97;;
13061;SDS011;6597;52.218;9.882;2023-04-24T09:48:30;5.77;;;2.07;;
13061;SDS011;6597;52.218;9.882;2023-04-24T09:50:57;3.20;;;1.80;;
13061;SDS011;6597;52.218;9.882;2023-04-24T09:53:24;2.63;;;1.83;;
13061;SDS011;6597;52.218;9.882;2023-04-24T09:55:51;2.33;;;1.73;;
13061;SDS011;6597;52.218;9.882;2023-04-24T09:58:18;2.33;;;1.50;;
13061;SDS011;6597;52.218;9.882;2023-04-24T10:00:52;2.03;;;1.40;;
13061;SDS011;6597;52.218;9.882;2023-04-24T10:03:20;2.83;;;1.60;;
13061;SDS011;6597;52.218;9.882;2023-04-24T10:05:46;2.17;;;1.30;;
13061;SDS011;6597;52.218;9.882;2023-04-24T10:08:13;1.93;;;1.37;;
13061;SDS011;6597;52.218;9.882;2023-04-24T10:10:40;1.23;;;1.13;;
13061;SDS011;6597;52.218;9.882;2023-04-24T10:13:08;1.77;;;1.40;;
13061;SDS011;6597;52.218;9.882;2023-04-24T10:15:36;2.17;;;1.40;;
13061;SDS011;6597;52.218;9.882;2023-04-24T10:18:05;2.40;;;1.60;;
13061;SDS011;6597;52.218;9.882;2023-04-24T10:20:32;4.30;;;1.90;;
13061;SDS011;6597;52.218;9.882;2023-04-24T10:23:00;2.87;;;1.53;;
13061;SDS011;6597;52.218;9.882;2023-04-24T10:25:27;3.50;;;1.40;;
13061;SDS011;6597;52.218;9.882;2023-04-24T10:27:55;1.60;;;1.30;;
13061;SDS011;6597;52.218;9.882;2023-04-24T10:30:24;1.83;;;1.33;;
13061;SDS011;6597;52.218;9.882;2023-04-24T10:32:52;2.07;;;1.50;;
13061;SDS011;6597;52.218;9.882;2023-04-24T10:35:20;1.60;;;1.20;;
13061;SDS011;6597;52.218;9.882;2023-04-24T10:37:50;3.13;;;1.60;;
13061;SDS011;6597;52.218;9.882;2023-04-24T10:40:25;1.47;;;1.37;;
13061;SDS011;6597;52.218;9.882;2023-04-24T10:42:53;4.60;;;1.73;;
13061;SDS011;6597;52.218;9.882;2023-04-24T10:45:21;2.17;;;1.50;;
13061;SDS011;6597;52.218;9.882;2023-04-24T10:47:52;3.07;;;1.70;;
13061;SDS011;6597;52.218;9.882;2023-04-24T10:50:30;1.60;;;1.50;;
13061;SDS011;6597;52.218;9.882;2023-04-24T10:53:12;4.57;;;1.53;;
13061;SDS011;6597;52.218;9.882;2023-04-24T10:55:40;4.10;;;1.30;;
13061;SDS011;6597;52.218;9.882;2023-04-24T10:58:08;1.77;;;1.33;;
13061;SDS011;6597;52.218;9.882;2023-04-24T11:00:36;1.70;;;1.33;;
13061;SDS011;6597;52.218;9.882;2023-04-24T11:03:04;2.13;;;1.50;;
13061;SDS011;6597;52.218;9.882;2023-04-24T11:05:52;1.80;;;1.47;;
13061;SDS011;6597;52.218;9.882;2023-04-24T11:08:25;2.30;;;1.60;;
13061;SDS011;6597;52.218;9.882;2023-04-24T11:10:57;2.30;;;1.53;;
13061;SDS011;6597;52.218;9.882;2023-04-24T11:13:26;3.13;;;1.53;;
13061;SDS011;6597;52.218;9.882;2023-04-24T11:16:12;2.60;;;1.80;;
13061;SDS011;6597;52.218;9.882;2023-04-24T11:18:40;1.73;;;1.43;;
13061;SDS011;6597;52.218;9.882;2023-04-24T11:21:12;1.23;;;1.10;;
13061;SDS011;6597;52.218;9.882;2023-04-24T11:23:39;1.00;;;0.80;;
13061;SDS011;6597;52.218;9.882;2023-04-24T11:26:12;1.80;;;0.80;;
13061;SDS011;6597;52.218;9.882;2023-04-24T11:28:44;0.60;;;0.60;;
13061;SDS011;6597;52.218;9.882;2023-04-24T11:34:05;0.70;;;0.70;;
13061;SDS011;6597;52.218;9.882;2023-04-24T11:36:34;1.53;;;1.00;;
13061;SDS011;6597;52.218;9.882;2023-04-24T11:39:01;0.87;;;0.80;;
13061;SDS011;6597;52.218;9.882;2023-04-24T11:41:28;0.80;;;0.80;;
13061;SDS011;6597;52.218;9.882;2023-04-24T11:43:54;2.53;;;1.00;;
13061;SDS011;6597;52.218;9.882;2023-04-24T11:46:21;1.10;;;1.00;;
13061;SDS011;6597;52.218;9.882;2023-04-24T11:48:48;1.20;;;0.97;;
13061;SDS011;6597;52.218;9.882;2023-04-24T11:51:14;1.60;;;1.10;;
13061;SDS011;6597;52.218;9.882;2023-04-24T11:53:42;2.67;;;0.90;;
13061;SDS011;6597;52.218;9.882;2023-04-24T11:56:09;0.80;;;0.80;;
13061;SDS011;6597;52.218;9.882;2023-04-24T11:58:35;1.00;;;0.90;;
13061;SDS011;6597;52.218;9.882;2023-04-24T12:01:03;1.17;;;1.07;;
13061;SDS011;6597;52.218;9.882;2023-04-24T12:03:30;1.10;;;1.00;;
13061;SDS011;6597;52.218;9.882;2023-04-24T12:06:06;0.80;;;0.80;;
13061;SDS011;6597;52.218;9.882;2023-04-24T12:08:33;0.73;;;0.73;;
13061;SDS011;6597;52.218;9.882;2023-04-24T12:11:02;4.07;;;1.10;;
13061;SDS011;6597;52.218;9.882;2023-04-24T12:13:29;1.00;;;0.90;;
13061;SDS011;6597;52.218;9.882;2023-04-24T12:15:56;1.37;;;0.83;;
13061;SDS011;6597;52.218;9.882;2023-04-24T12:18:23;1.20;;;1.00;;
13061;SDS011;6597;52.218;9.882;2023-04-24T12:20:50;1.00;;;0.90;;
13061;SDS011;6597;52.218;9.882;2023-04-24T12:23:16;0.70;;;0.70;;
13061;SDS011;6597;52.218;9.882;2023-04-24T12:25:59;0.40;;;0.33;;
13061;SDS011;6597;52.218;9.882;2023-04-24T12:28:33;0.57;;;0.30;;
13061;SDS011;6597;52.218;9.882;2023-04-24T12:31:01;0.40;;;0.40;;
13061;SDS011;6597;52.218;9.882;2023-04-24T12:33:31;0.40;;;0.40;;
13061;SDS011;6597;52.218;9.882;2023-04-24T12:35:59;1.60;;;1.10;;
13061;SDS011;6597;52.218;9.882;2023-04-24T12:38:27;1.43;;;0.87;;
13061;SDS011;6597;52.218;9.882;2023-04-24T12:41:01;1.37;;;1.00;;
13061;SDS011;6597;52.218;9.882;2023-04-24T12:43:30;1.10;;;0.83;;
13061;SDS011;6597;52.218;9.882;2023-04-24T12:45:57;1.30;;;1.10;;
13061;SDS011;6597;52.218;9.882;2023-04-24T12:48:24;4.57;;;1.33;;
13061;SDS011;6597;52.218;9.882;2023-04-24T12:50:50;0.90;;;0.90;;
13061;SDS011;6597;52.218;9.882;2023-04-24T12:53:17;0.90;;;0.70;;
13061;SDS011;6597;52.218;9.882;2023-04-24T12:55:44;0.80;;;0.80;;
13061;SDS011;6597;52.218;9.882;2023-04-24T12:58:12;1.13;;;0.97;;
13061;SDS011;6597;52.218;9.882;2023-04-24T13:00:40;1.57;;;1.20;;
13061;SDS011;6597;52.218;9.882;2023-04-24T13:03:08;0.80;;;0.63;;
13061;SDS011;6597;52.218;9.882;2023-04-24T13:05:34;1.93;;;0.90;;
13061;SDS011;6597;52.218;9.882;2023-04-24T13:08:01;1.50;;;1.13;;
13061;SDS011;6597;52.218;9.882;2023-04-24T13:10:27;0.97;;;0.73;;
13061;SDS011;6597;52.218;9.882;2023-04-24T13:12:54;1.90;;;0.90;;
13061;SDS011;6597;52.218;9.882;2023-04-24T13:15:21;2.60;;;0.73;;
13061;SDS011;6597;52.218;9.882;2023-04-24T13:17:49;0.93;;;0.70;;
13061;SDS011;6597;52.218;9.882;2023-04-24T13:20:15;0.80;;;0.80;;
13061;SDS011;6597;52.218;9.882;2023-04-24T13:22:42;3.13;;;0.60;;
13061;SDS011;6597;52.218;9.882;2023-04-24T13:25:08;0.60;;;0.60;;
13061;SDS011;6597;52.218;9.882;2023-04-24T13:27:35;0.50;;;0.50;;
13061;SDS011;6597;52.218;9.882;2023-04-24T13:30:02;0.90;;;0.70;;
13061;SDS011;6597;52.218;9.882;2023-04-24T13:32:29;0.90;;;0.70;;
13061;SDS011;6597;52.218;9.882;2023-04-24T13:34:57;0.40;;;0.40;;
13061;SDS011;6597;52.218;9.882;2023-04-24T13:37:23;0.53;;;0.53;;
13061;SDS011;6597;52.218;9.882;2023-04-24T13:39:50;0.50;;;0.50;;
13061;SDS011;6597;52.218;9.882;2023-04-24T13:42:17;0.70;;;0.43;;
13061;SDS011;6597;52.218;9.882;2023-04-24T13:44:45;0.40;;;0.40;;
13061;SDS011;6597;52.218;9.882;2023-04-24T13:47:11;0.67;;;0.67;;
13061;SDS011;6597;52.218;9.882;2023-04-24T13:49:38;0.40;;;0.40;;
13061;SDS011;6597;52.218;9.882;2023-04-24T13:52:06;2.20;;;0.40;;
13061;SDS011;6597;52.218;9.882;2023-04-24T13:54:32;0.97;;;0.57;;
13061;SDS011;6597;52.218;9.882;2023-04-24T13:56:59;0.83;;;0.40;;
13061;SDS011;6597;52.218;9.882;2023-04-24T13:59:26;0.50;;;0.50;;
13061;SDS011;6597;52.218;9.882;2023-04-24T14:01:52;0.40;;;0.30;;
13061;SDS011;6597;52.218;9.882;2023-04-24T14:04:19;6.53;;;0.40;;
13061;SDS011;6597;52.218;9.882;2023-04-24T14:06:46;0.30;;;0.30;;
13061;SDS011;6597;52.218;9.882;2023-04-24T14:09:14;0.40;;;0.27;;
13061;SDS011;6597;52.218;9.882;2023-04-24T14:11:40;0.20;;;0.20;;
13061;SDS011;6597;52.218;9.882;2023-04-24T14:14:07;0.27;;;0.20;;
13061;SDS011;6597;52.218;9.882;2023-04-24T14:16:34;0.30;;;0.30;;
13061;SDS011;6597;52.218;9.882;2023-04-24T14:19:00;0.10;;;0.10;;
13061;SDS011;6597;52.218;9.882;2023-04-24T14:21:27;0.40;;;0.40;;
13061;SDS011;6597;52.218;9.882;2023-04-24T14:23:55;0.60;;;0.43;;
13061;SDS011;6597;52.218;9.882;2023-04-24T14:26:23;0.63;;;0.63;;
13061;SDS011;6597;52.218;9.882;2023-04-24T14:28:50;0.47;;;0.43;;
13061;SDS011;6597;52.218;9.882;2023-04-24T14:31:18;0.50;;;0.50;;
13061;SDS011;6597;52.218;9.882;2023-04-24T14:33:44;1.03;;;0.70;;
13061;SDS011;6597;52.218;9.882;2023-04-24T14:36:11;1.23;;;0.37;;
13061;SDS011;6597;52.218;9.882;2023-04-24T14:38:37;0.90;;;0.60;;
13061;SDS011;6597;52.218;9.882;2023-04-24T14:41:04;0.83;;;0.60;;
13061;SDS011;6597;52.218;9.882;2023-04-24T14:43:35;0.80;;;0.73;;
13061;SDS011;6597;52.218;9.882;2023-04-24T14:46:02;3.70;;;1.13;;
13061;SDS011;6597;52.218;9.882;2023-04-24T14:48:29;4.10;;;1.10;;
13061;SDS011;6597;52.218;9.882;2023-04-24T14:50:56;1.00;;;0.90;;
13061;SDS011;6597;52.218;9.882;2023-04-24T14:53:22;0.90;;;0.90;;
13061;SDS011;6597;52.218;9.882;2023-04-24T14:55:49;1.07;;;0.77;;
13061;SDS011;6597;52.218;9.882;2023-04-24T14:58:15;0.93;;;0.90;;
13061;SDS011;6597;52.218;9.882;2023-04-24T15:00:43;0.67;;;0.60;;
13061;SDS011;6597;52.218;9.882;2023-04-24T15:03:10;1.17;;;1.07;;
13061;SDS011;6597;52.218;9.882;2023-04-24T15:05:36;1.20;;;1.00;;
13061;SDS011;6597;52.218;9.882;2023-04-24T15:08:03;1.43;;;1.30;;
13061;SDS011;6597;52.218;9.882;2023-04-24T15:10:30;2.03;;;1.10;;